Observation data for Seymour on 09/12/2017      Previous  Date  Next       Current Mesonet Observations  Soil Data  Daily Summary Page  Observations in Plain Language
KSE1 120500Z 11002KT 19/10 A3004 RMK A01 T01940102  RH  056%=      5-min Rain = 0
KSE1 120505Z 11002KT 19/10 A3004 RMK A01 T01940102  RH  056%=      5-min Rain = 0
KSE1 120510Z 11003KT 19/10 A3004 RMK A01 T01930104  RH  057%=      5-min Rain = 0
KSE1 120515Z 11003KT 19/11 A3004 RMK A01 T01920105  RH  058%=      5-min Rain = 0
KSE1 120520Z 10003KT 19/11 A3003 RMK A01 T01920106  RH  058%=      5-min Rain = 0
KSE1 120525Z 10001KT 19/11 A3003 RMK A01 T01920108  RH  059%=      5-min Rain = 0
KSE1 120530Z 11000KT 19/11 A3003 RMK A01 T01870108  RH  061%=      5-min Rain = 0
KSE1 120535Z 00000KT 18/11 A3003 RMK A01 T01770105  RH  064%=      5-min Rain = 0
KSE1 120540Z 00000KT 18/10 A3003 RMK A01 T01760104  RH  064%=      5-min Rain = 0
KSE1 120545Z 00000KT 17/10 A3003 RMK A01 T01730101  RH  064%=      5-min Rain = 0
KSE1 120550Z 00000KT 17/10 A3003 RMK A01 T01710103  RH  066%=      5-min Rain = 0
KSE1 120555Z 11000KT 18/10 A3003 RMK A01 T01760103  RH  063%=      5-min Rain = 0
KSE1 120600Z 11000KT 17/10 A3002 RMK A01 T01740097  RH  062%=      5-min Rain = 0
KSE1 120605Z 12001KT 17/10 A3002 RMK A01 T01730100  RH  063%=      5-min Rain = 0
KSE1 120610Z 24002KT 17/10 A3002 RMK A01 T01700095  RH  062%=      5-min Rain = 0
KSE1 120615Z 23002KT 17/09 A3002 RMK A01 T01660092  RH  063%=      5-min Rain = 0
KSE1 120620Z 22001KT 17/10 A3002 RMK A01 T01660098  RH  065%=      5-min Rain = 0
KSE1 120625Z 22000KT 17/11 A3002 RMK A01 T01740106  RH  065%=      5-min Rain = 0
KSE1 120630Z 20001KT 18/11 A3002 RMK A01 T01780107  RH  064%=      5-min Rain = 0
KSE1 120635Z 19002KT 18/11 A3002 RMK A01 T01770111  RH  066%=      5-min Rain = 0
KSE1 120640Z 19002KT 18/11 A3002 RMK A01 T01760112  RH  067%=      5-min Rain = 0
KSE1 120645Z 19001KT 18/11 A3002 RMK A01 T01760112  RH  067%=      5-min Rain = 0
KSE1 120650Z 00000KT 18/11 A3002 RMK A01 T01760112  RH  067%=      5-min Rain = 0
KSE1 120655Z 00000KT 18/12 A3002 RMK A01 T01770116  RH  068%=      5-min Rain = 0
KSE1 120700Z 24002KT 18/11 A3002 RMK A01 T01770113  RH  067%=      5-min Rain = 0
KSE1 120705Z 25003KT 16/09 A3002 RMK A01 T01630094  RH  065%=      5-min Rain = 0
KSE1 120710Z 25002KT 16/09 A3002 RMK A01 T01570086  RH  064%=      5-min Rain = 0
KSE1 120715Z 25002KT 16/10 A3002 RMK A01 T01600095  RH  066%=      5-min Rain = 0
KSE1 120720Z 24002KT 16/10 A3002 RMK A01 T01640103  RH  068%=      5-min Rain = 0
KSE1 120725Z 24001KT 17/11 A3002 RMK A01 T01680105  RH  068%=      5-min Rain = 0
KSE1 120730Z 00000KT 17/11 A3001 RMK A01 T01680105  RH  067%=      5-min Rain = 0
KSE1 120735Z 00000KT 17/11 A3001 RMK A01 T01690109  RH  069%=      5-min Rain = 0
KSE1 120740Z 24001KT 17/11 A3001 RMK A01 T01690108  RH  068%=      5-min Rain = 0
KSE1 120745Z 24001KT 17/11 A3001 RMK A01 T01680107  RH  068%=      5-min Rain = 0
KSE1 120750Z 24002KT 17/11 A3001 RMK A01 T01660105  RH  068%=      5-min Rain = 0
KSE1 120755Z 24002KT 16/10 A3001 RMK A01 T01630101  RH  068%=      5-min Rain = 0
KSE1 120800Z 24002KT 16/10 A3001 RMK A01 T01580096  RH  068%=      5-min Rain = 0
KSE1 120805Z 25003KT 16/10 A3001 RMK A01 T01600096  RH  067%=      5-min Rain = 0
KSE1 120810Z 25002KT 16/10 A3001 RMK A01 T01630096  RH  066%=      5-min Rain = 0
KSE1 120815Z 26001KT 16/10 A3001 RMK A01 T01620098  RH  067%=      5-min Rain = 0
KSE1 120820Z 27002KT 16/10 A3001 RMK A01 T01610097  RH  067%=      5-min Rain = 0
KSE1 120825Z 28001KT 16/10 A3001 RMK A01 T01590095  RH  067%=      5-min Rain = 0
KSE1 120830Z 28002KT 16/09 A3001 RMK A01 T01580094  RH  067%=      5-min Rain = 0
KSE1 120835Z 28002KT 16/10 A30 RMK A01 T01580095  RH  067%=      5-min Rain = 0
KSE1 120840Z 28002KT 16/10 A3001 RMK A01 T01570096  RH  068%=      5-min Rain = 0
KSE1 120845Z 28003KT 16/10 A30 RMK A01 T01580095  RH  067%=      5-min Rain = 0
KSE1 120850Z 28003KT 16/10 A30 RMK A01 T01560096  RH  068%=      5-min Rain = 0
KSE1 120855Z 29002KT 16/10 A30 RMK A01 T01570097  RH  069%=      5-min Rain = 0
KSE1 120900Z 30001KT 16/10 A30 RMK A01 T01550095  RH  069%=      5-min Rain = 0
KSE1 120905Z 30001KT 15/10 A30 RMK A01 T01530096  RH  070%=      5-min Rain = 0
KSE1 120910Z 30000KT 15/10 A30 RMK A01 T01510097  RH  071%=      5-min Rain = 0
KSE1 120915Z 30000KT 15/09 A30 RMK A01 T01490093  RH  070%=      5-min Rain = 0
KSE1 120920Z 28000KT 15/09 A30 RMK A01 T01460092  RH  071%=      5-min Rain = 0
KSE1 120925Z 27002KT 15/09 A30 RMK A01 T01460094  RH  072%=      5-min Rain = 0
KSE1 120930Z 29002KT 15/10 A30 RMK A01 T01450095  RH  073%=      5-min Rain = 0
KSE1 120935Z 30002KT 15/10 A30 RMK A01 T01450097  RH  074%=      5-min Rain = 0
KSE1 120940Z 30002KT 15/10 A30 RMK A01 T01460099  RH  075%=      5-min Rain = 0
KSE1 120945Z 29001KT 15/10 A30 RMK A01 T01450096  RH  074%=      5-min Rain = 0
KSE1 120950Z 25002KT 14/09 A30 RMK A01 T01400088  RH  072%=      5-min Rain = 0
KSE1 120955Z 27003KT 14/09 A30 RMK A01 T01390089  RH  073%=      5-min Rain = 0
KSE1 121000Z 28002KT 14/09 A30 RMK A01 T01400093  RH  075%=      5-min Rain = 0
KSE1 121005Z 26002KT 14/10 A30 RMK A01 T01410096  RH  075%=      5-min Rain = 0
KSE1 121010Z 26002KT 14/10 A30 RMK A01 T01430098  RH  076%=      5-min Rain = 0
KSE1 121015Z 26002KT 14/10 A30 RMK A01 T01420096  RH  075%=      5-min Rain = 0
KSE1 121020Z 26002KT 14/10 A30 RMK A01 T01420096  RH  075%=      5-min Rain = 0
KSE1 121025Z 26002KT 14/10 A30 RMK A01 T01400095  RH  075%=      5-min Rain = 0
KSE1 121030Z 26002KT 14/10 A30 RMK A01 T01410097  RH  076%=      5-min Rain = 0
KSE1 121035Z 26002KT 14/10 A30 RMK A01 T01400097  RH  076%=      5-min Rain = 0
KSE1 121040Z 26002KT 14/10 A30 RMK A01 T01380096  RH  077%=      5-min Rain = 0
KSE1 121045Z 27002KT 14/10 A30 RMK A01 T01400102  RH  079%=      5-min Rain = 0
KSE1 121050Z 27003KT 14/10 A30 RMK A01 T01390097  RH  077%=      5-min Rain = 0
KSE1 121055Z 28003KT 14/10 A30 RMK A01 T01370097  RH  078%=      5-min Rain = 0
KSE1 121100Z 29003KT 14/10 A30 RMK A01 T01350095  RH  078%=      5-min Rain = 0
KSE1 121105Z 28004KT 14/10 A30 RMK A01 T01360099  RH  079%=      5-min Rain = 0
KSE1 121110Z 29004KT 14/10 A30 RMK A01 T01360098  RH  079%=      5-min Rain = 0
KSE1 121115Z 29004KT 13/10 A30 RMK A01 T01330096  RH  080%=      5-min Rain = 0
KSE1 121120Z 29003KT 13/10 A30 RMK A01 T01320097  RH  080%=      5-min Rain = 0
KSE1 121125Z 29004KT 14/10 A30 RMK A01 T01360101  RH  081%=      5-min Rain = 0
KSE1 121130Z 29003KT 14/10 A3001 RMK A01 T01380102  RH  080%=      5-min Rain = 0
KSE1 121135Z 29002KT 14/11 A3001 RMK A01 T01440110  RH  081%=      5-min Rain = 0
KSE1 121140Z 29002KT 15/11 A3001 RMK A01 T01490110  RH  079%=      5-min Rain = 0
KSE1 121145Z 29003KT 15/11 A3001 RMK A01 T01500110  RH  078%=      5-min Rain = 0
KSE1 121150Z 29003KT 16/11 A3001 RMK A01 T01560110  RH  076%=      5-min Rain = 0
KSE1 121155Z 29003KT 16/11 A3001 RMK A01 T01570109  RH  074%=      5-min Rain = 0
KSE1 121200Z 29002KT 16/11 A3001 RMK A01 T01580108  RH  074%=      5-min Rain = 0
KSE1 121205Z 29002KT 15/11 A3001 RMK A01 T01530105  RH  074%=      5-min Rain = 0
KSE1 121210Z 29002KT 15/10 A3001 RMK A01 T01510104  RH  075%=      5-min Rain = 0
KSE1 121215Z 26001KT 15/10 A3001 RMK A01 T01480103  RH  075%=      5-min Rain = 0
KSE1 121220Z 26002KT 15/10 A3001 RMK A01 T01490104  RH  076%=      5-min Rain = 0
KSE1 121225Z 26001KT 15/10 A3001 RMK A01 T01500104  RH  075%=      5-min Rain = 0
KSE1 121230Z 26001KT 15/10 A3001 RMK A01 T01500103  RH  075%=      5-min Rain = 0
KSE1 121235Z 27002KT 15/10 A3001 RMK A01 T01480100  RH  074%=      5-min Rain = 0
KSE1 121240Z 29003KT 15/10 A3001 RMK A01 T01460101  RH  075%=      5-min Rain = 0
KSE1 121245Z 29002KT 15/10 A3002 RMK A01 T01450099  RH  075%=      5-min Rain = 0
KSE1 121250Z 32001KT 14/10 A3002 RMK A01 T01430101  RH  077%=      5-min Rain = 0
KSE1 121255Z 32002KT 15/10 A3002 RMK A01 T01460104  RH  077%=      5-min Rain = 0
KSE1 121300Z 31002KT 15/11 A3002 RMK A01 T01510109  RH  078%=      5-min Rain = 0
KSE1 121305Z 30002KT 16/11 A3002 RMK A01 T01630114  RH  074%=      5-min Rain = 0
KSE1 121310Z 29001KT 17/11 A3002 RMK A01 T01700112  RH  070%=      5-min Rain = 0
KSE1 121315Z 29001KT 17/11 A3002 RMK A01 T01730112  RH  069%=      5-min Rain = 0
KSE1 121320Z 31001KT 18/11 A3002 RMK A01 T01760113  RH  068%=      5-min Rain = 0
KSE1 121325Z 31001KT 18/12 A3002 RMK A01 T01800117  RH  068%=      5-min Rain = 0
KSE1 121330Z 31002KT 18/12 A3001 RMK A01 T01820120  RH  068%=      5-min Rain = 0
KSE1 121335Z 31002KT 19/12 A3001 RMK A01 T01850122  RH  068%=      5-min Rain = 0
KSE1 121340Z 31003KT 19/12 A3002 RMK A01 T01910120  RH  065%=      5-min Rain = 0
KSE1 121345Z 32003KT 20/12 A3002 RMK A01 T01950122  RH  064%=      5-min Rain = 0
KSE1 121350Z 32002KT 20/12 A3002 RMK A01 T01990124  RH  063%=      5-min Rain = 0
KSE1 121355Z 29002KT 20/12 A3001 RMK A01 T01980124  RH  064%=      5-min Rain = 0
KSE1 121400Z 29001KT 20/12 A3001 RMK A01 T02000124  RH  063%=      5-min Rain = 0
KSE1 121405Z 31001KT 20/12 A3001 RMK A01 T02040123  RH  061%=      5-min Rain = 0
KSE1 121410Z 29001KT 21/13 A3001 RMK A01 T02070126  RH  061%=      5-min Rain = 0
KSE1 121415Z 31001KT 21/13 A3001 RMK A01 T02100130  RH  062%=      5-min Rain = 0
KSE1 121420Z 32002KT 22/12 A3001 RMK A01 T02160123  RH  056%=      5-min Rain = 0
KSE1 121425Z 32003KT 22/12 A3001 RMK A01 T02200122  RH  055%=      5-min Rain = 0
KSE1 121430Z 32003KT 22/12 A3001 RMK A01 T02240122  RH  053%=      5-min Rain = 0
KSE1 121435Z 32002KT 23/12 A3001 RMK A01 T02280122  RH  052%=      5-min Rain = 0
KSE1 121440Z 32003KT 23/12 A3001 RMK A01 T02310120  RH  051%=      5-min Rain = 0
KSE1 121445Z 29003KT 23/12 A3001 RMK A01 T02330120  RH  050%=      5-min Rain = 0
KSE1 121450Z 29004KT 24/12 A3001 RMK A01 T02380120  RH  048%=      5-min Rain = 0
KSE1 121455Z 28004KT 24/12 A3001 RMK A01 T02380116  RH  047%=      5-min Rain = 0
KSE1 121500Z 28004KT 24/12 A3001 RMK A01 T02400117  RH  047%=      5-min Rain = 0
KSE1 121505Z 29004KT 24/12 A3001 RMK A01 T02420117  RH  046%=      5-min Rain = 0
KSE1 121510Z 29003KT 25/12 A3001 RMK A01 T02450117  RH  046%=      5-min Rain = 0
KSE1 121515Z 28004KT 25/12 A30 RMK A01 T02460119  RH  046%=      5-min Rain = 0
KSE1 121520Z 27004KT 25/12 A30 RMK A01 T02480120  RH  046%=      5-min Rain = 0
KSE1 121525Z 27005KT 25/12 A30 RMK A01 T02500122  RH  046%=      5-min Rain = 0
KSE1 121530Z 27004KT 25/12 A30 RMK A01 T02500118  RH  045%=      5-min Rain = 0
KSE1 121535Z 27003KT 25/12 A30 RMK A01 T02540123  RH  045%=      5-min Rain = 0
KSE1 121540Z 27004KT 26/12 A30 RMK A01 T02560119  RH  043%=      5-min Rain = 0
KSE1 121545Z 25004KT 26/12 A30 RMK A01 T02590118  RH  042%=      5-min Rain = 0
KSE1 121550Z 27004KT 26/11 A30 RMK A01 T02590114  RH  041%=      5-min Rain = 0
KSE1 121555Z 24004KT 26/12 A30 RMK A01 T02590118  RH  042%=      5-min Rain = 0
KSE1 121600Z 24003KT 26/12 A30 RMK A01 T02620116  RH  041%=      5-min Rain = 0
KSE1 121605Z 26002KT 26/11 A30 RMK A01 T02630111  RH  039%=      5-min Rain = 0
KSE1 121610Z 31002KT 27/11 A30 RMK A01 T02670110  RH  038%=      5-min Rain = 0
KSE1 121615Z 26003KT 27/11 A30 RMK A01 T02680109  RH  038%=      5-min Rain = 0
KSE1 121620Z 33004KT 27/11 A30 RMK A01 T02710107  RH  037%=      5-min Rain = 0
KSE1 121625Z 32002KT 28/11 A30 RMK A01 T02760109  RH  036%=      5-min Rain = 0
KSE1 121630Z 28004G9KT 28/11 A2999 RMK A01 T02750107  RH  036%=      5-min Rain = 0
KSE1 121635Z 29003KT 27/10 A2999 RMK A01 T02730104  RH  035%=      5-min Rain = 0
KSE1 121640Z 29003KT 28/11 A2999 RMK A01 T02770108  RH  035%=      5-min Rain = 0
KSE1 121645Z 36004KT 28/11 A2999 RMK A01 T02810109  RH  035%=      5-min Rain = 0
KSE1 121650Z 32003KT 29/11 A2999 RMK A01 T02850113  RH  035%=      5-min Rain = 0
KSE1 121655Z 31004G9KT 28/11 A2999 RMK A01 T02840106  RH  034%=      5-min Rain = 0
KSE1 121700Z 32004KT 28/11 A2999 RMK A01 T02840106  RH  034%=      5-min Rain = 0
KSE1 121705Z 05003KT 29/11 A2999 RMK A01 T02870106  RH  033%=      5-min Rain = 0
KSE1 121710Z 36005KT 29/10 A2999 RMK A01 T02860104  RH  033%=      5-min Rain = 0
KSE1 121715Z 33003G8KT 29/11 A2998 RMK A01 T02850105  RH  033%=      5-min Rain = 0
KSE1 121720Z 35004KT 29/10 A2998 RMK A01 T02870101  RH  032%=      5-min Rain = 0
KSE1 121725Z 34005KT 29/10 A2998 RMK A01 T02890100  RH  031%=      5-min Rain = 0
KSE1 121730Z 34006KT 29/10 A2998 RMK A01 T02910103  RH  032%=      5-min Rain = 0
KSE1 121735Z 36003KT 29/11 A2997 RMK A01 T02890106  RH  033%=      5-min Rain = 0
KSE1 121740Z 32003KT 29/11 A2997 RMK A01 T02940109  RH  032%=      5-min Rain = 0
KSE1 121745Z 24003KT 29/11 A2997 RMK A01 T02900108  RH  033%=      5-min Rain = 0
KSE1 121750Z 22004KT 29/11 A2997 RMK A01 T02900106  RH  033%=      5-min Rain = 0
KSE1 121755Z 36004KT 29/10 A2997 RMK A01 T02940101  RH  031%=      5-min Rain = 0
KSE1 121800Z 01004KT 30/10 A2996 RMK A01 T02970100  RH  030%=      5-min Rain = 0
KSE1 121805Z 03003G8KT 30/10 A2996 RMK A01 T02990100  RH  030%=      5-min Rain = 0
KSE1 121810Z 01005KT 30/10 A2996 RMK A01 T03020104  RH  030%=      5-min Rain = 0
KSE1 121815Z 35005G10KT 30/11 A2995 RMK A01 T03040106  RH  030%=      5-min Rain = 0
KSE1 121820Z 35004KT 31/11 A2995 RMK A01 T03050107  RH  030%=      5-min Rain = 0
KSE1 121825Z 29004G9KT 30/11 A2995 RMK A01 T03020105  RH  030%=      5-min Rain = 0
KSE1 121830Z 01005KT 31/11 A2995 RMK A01 T03060107  RH  030%=      5-min Rain = 0
KSE1 121835Z 05003KT 31/10 A2995 RMK A01 T03070104  RH  029%=      5-min Rain = 0
KSE1 121840Z 34007G12KT 31/09 A2995 RMK A01 T03110094  RH  027%=      5-min Rain = 0
KSE1 121845Z 34006KT 31/10 A2994 RMK A01 T03110098  RH  027%=      5-min Rain = 0
KSE1 121850Z 03006G11KT 31/10 A2994 RMK A01 T03090103  RH  028%=      5-min Rain = 0
KSE1 121855Z 04009G14KT 31/10 A2994 RMK A01 T03100100  RH  028%=      5-min Rain = 0
KSE1 121900Z 04007KT 31/10 A2994 RMK A01 T03080100  RH  028%=      5-min Rain = 0
KSE1 121905Z 01007G13KT 31/09 A2994 RMK A01 T03130093  RH  026%=      5-min Rain = 0
KSE1 121910Z 01008KT 31/09 A2993 RMK A01 T03130089  RH  025%=      5-min Rain = 0
KSE1 121915Z 32005KT 31/09 A2993 RMK A01 T03110094  RH  026%=      5-min Rain = 0
KSE1 121920Z 00007KT 31/10 A2992 RMK A01 T03100095  RH  027%=      5-min Rain = 0
KSE1 121925Z 35008KT 31/10 A2992 RMK A01 T03080096  RH  027%=      5-min Rain = 0
KSE1 121930Z 35006KT 30/10 A2992 RMK A01 T03040099  RH  028%=      5-min Rain = 0
KSE1 121935Z 03004KT 31/10 A2992 RMK A01 T03080102  RH  029%=      5-min Rain = 0
KSE1 121940Z 09003KT 31/10 A2992 RMK A01 T03070100  RH  028%=      5-min Rain = 0
KSE1 121945Z 10001KT 31/11 A2991 RMK A01 T03070106  RH  029%=      5-min Rain = 0
KSE1 121950Z 04005KT 31/10 A2991 RMK A01 T03140100  RH  027%=      5-min Rain = 0
KSE1 121955Z 02006KT 31/10 A2991 RMK A01 T03140099  RH  027%=      5-min Rain = 0
KSE1 122000Z 03004G11KT 31/09 A2991 RMK A01 T03120093  RH  026%=      5-min Rain = 0
KSE1 122005Z 01007KT 31/10 A299 RMK A01 T03130095  RH  026%=      5-min Rain = 0
KSE1 122010Z 02008KT 31/10 A299 RMK A01 T03120095  RH  026%=      5-min Rain = 0
KSE1 122015Z 05003KT 31/10 A299 RMK A01 T03100097  RH  027%=      5-min Rain = 0
KSE1 122020Z 30001G6KT 31/10 A2989 RMK A01 T03130100  RH  027%=      5-min Rain = 0
KSE1 122025Z 01005KT 32/10 A2989 RMK A01 T03170095  RH  026%=      5-min Rain = 0
KSE1 122030Z 33006G11KT 32/09 A2989 RMK A01 T03170093  RH  025%=      5-min Rain = 0
KSE1 122035Z 00008KT 32/09 A2989 RMK A01 T03160088  RH  025%=      5-min Rain = 0
KSE1 122040Z 02008KT 32/09 A2989 RMK A01 T03150086  RH  024%=      5-min Rain = 0
KSE1 122045Z 35006G11KT 32/09 A2988 RMK A01 T03150087  RH  025%=      5-min Rain = 0
KSE1 122050Z 02005G12KT 32/09 A2988 RMK A01 T03210092  RH  025%=      5-min Rain = 0
KSE1 122055Z 00007KT 32/09 A2988 RMK A01 T03220088  RH  024%=      5-min Rain = 0
KSE1 122100Z 03006G11KT 32/09 A2988 RMK A01 T03230087  RH  024%=      5-min Rain = 0
KSE1 122105Z 01008KT 32/09 A2988 RMK A01 T03180085  RH  024%=      5-min Rain = 0
KSE1 122110Z 02006G11KT 32/09 A2987 RMK A01 T03210089  RH  024%=      5-min Rain = 0
KSE1 122115Z 01008KT 32/09 A2987 RMK A01 T03230085  RH  023%=      5-min Rain = 0
KSE1 122120Z 01007KT 32/08 A2987 RMK A01 T03220083  RH  023%=      5-min Rain = 0
KSE1 122125Z 03006KT 32/08 A2987 RMK A01 T03210077  RH  022%=      5-min Rain = 0
KSE1 122130Z 05009G15KT 32/08 A2987 RMK A01 T03190079  RH  023%=      5-min Rain = 0
KSE1 122135Z 03007KT 32/08 A2987 RMK A01 T03190081  RH  023%=      5-min Rain = 0
KSE1 122140Z 02008KT 32/08 A2987 RMK A01 T03190079  RH  023%=      5-min Rain = 0
KSE1 122145Z 03007KT 32/08 A2987 RMK A01 T03180075  RH  022%=      5-min Rain = 0
KSE1 122150Z 02007KT 32/07 A2986 RMK A01 T03200071  RH  022%=      5-min Rain = 0
KSE1 122155Z 05006KT 32/07 A2986 RMK A01 T03200071  RH  022%=      5-min Rain = 0
KSE1 122200Z 04006G11KT 32/07 A2986 RMK A01 T03200074  RH  022%=      5-min Rain = 0
KSE1 122205Z 05006KT 32/08 A2986 RMK A01 T03210076  RH  022%=      5-min Rain = 0
KSE1 122210Z 04006KT 32/08 A2986 RMK A01 T03200076  RH  022%=      5-min Rain = 0
KSE1 122215Z 02006KT 32/08 A2986 RMK A01 T03210080  RH  023%=      5-min Rain = 0
KSE1 122220Z 02003KT 32/08 A2986 RMK A01 T03200077  RH  022%=      5-min Rain = 0
KSE1 122225Z 01006KT 32/08 A2986 RMK A01 T03210076  RH  022%=      5-min Rain = 0
KSE1 122230Z 02002KT 32/08 A2985 RMK A01 T03230079  RH  022%=      5-min Rain = 0
KSE1 122235Z 02005G10KT 32/08 A2985 RMK A01 T03230079  RH  022%=      5-min Rain = 0
KSE1 122240Z 03005KT 32/08 A2985 RMK A01 T03210077  RH  022%=      5-min Rain = 0
KSE1 122245Z 04008KT 32/08 A2985 RMK A01 T03200076  RH  022%=      5-min Rain = 0
KSE1 122250Z 05005KT 32/08 A2985 RMK A01 T03180079  RH  023%=      5-min Rain = 0
KSE1 122255Z 02007KT 32/08 A2985 RMK A01 T03200081  RH  023%=      5-min Rain = 0
KSE1 122300Z 01007KT 32/08 A2985 RMK A01 T03190076  RH  022%=      5-min Rain = 0
KSE1 122305Z 02005KT 32/08 A2985 RMK A01 T03170075  RH  022%=      5-min Rain = 0
KSE1 122310Z 01006KT 32/08 A2984 RMK A01 T03180075  RH  022%=      5-min Rain = 0
KSE1 122315Z 01006KT 32/08 A2984 RMK A01 T03170076  RH  023%=      5-min Rain = 0
KSE1 122320Z 02006KT 32/08 A2984 RMK A01 T03170079  RH  023%=      5-min Rain = 0
KSE1 122325Z 02005KT 32/08 A2984 RMK A01 T03160079  RH  023%=      5-min Rain = 0
KSE1 122330Z 01007KT 32/08 A2984 RMK A01 T03160079  RH  023%=      5-min Rain = 0
KSE1 122335Z 01006KT 32/08 A2984 RMK A01 T03150080  RH  024%=      5-min Rain = 0
KSE1 122340Z 03005KT 31/09 A2984 RMK A01 T03140086  RH  025%=      5-min Rain = 0
KSE1 122345Z 03005KT 31/09 A2984 RMK A01 T03130086  RH  025%=      5-min Rain = 0
KSE1 122350Z 02005KT 31/09 A2984 RMK A01 T03120088  RH  025%=      5-min Rain = 0
KSE1 122355Z 02005KT 31/09 A2984 RMK A01 T03110087  RH  025%=      5-min Rain = 0
KSE1 130000Z 02005KT 31/09 A2984 RMK A01 T03090089  RH  026%=      5-min Rain = 0
KSE1 130005Z 02006KT 31/09 A2984 RMK A01 T03060089  RH  026%=      5-min Rain = 0
KSE1 130010Z 03006KT 31/09 A2983 RMK A01 T03050091  RH  027%=      5-min Rain = 0
KSE1 130015Z 03006KT 30/09 A2983 RMK A01 T03040090  RH  027%=      5-min Rain = 0
KSE1 130020Z 03005KT 30/09 A2983 RMK A01 T03020093  RH  028%=      5-min Rain = 0
KSE1 130025Z 03005KT 30/10 A2983 RMK A01 T03000096  RH  029%=      5-min Rain = 0
KSE1 130030Z 03005KT 30/10 A2983 RMK A01 T02960095  RH  029%=      5-min Rain = 0
KSE1 130035Z 03006KT 29/09 A2983 RMK A01 T02930091  RH  029%=      5-min Rain = 0
KSE1 130040Z 02007KT 29/09 A2983 RMK A01 T02920092  RH  029%=      5-min Rain = 0
KSE1 130045Z 03006KT 29/09 A2983 RMK A01 T02900094  RH  030%=      5-min Rain = 0
KSE1 130050Z 03007KT 29/09 A2983 RMK A01 T02850094  RH  031%=      5-min Rain = 0
KSE1 130055Z 03006KT 28/09 A2983 RMK A01 T02830094  RH  031%=      5-min Rain = 0
KSE1 130100Z 03006KT 28/09 A2983 RMK A01 T02810094  RH  031%=      5-min Rain = 0
KSE1 130105Z 03006KT 28/10 A2983 RMK A01 T02780096  RH  033%=      5-min Rain = 0
KSE1 130110Z 03006KT 27/10 A2983 RMK A01 T02720098  RH  034%=      5-min Rain = 0
KSE1 130115Z 04005KT 27/10 A2983 RMK A01 T02660099  RH  036%=      5-min Rain = 0
KSE1 130120Z 04005KT 26/10 A2983 RMK A01 T02620103  RH  037%=      5-min Rain = 0
KSE1 130125Z 04006G11KT 26/10 A2983 RMK A01 T02590103  RH  038%=      5-min Rain = 0
KSE1 130130Z 06006KT 27/09 A2983 RMK A01 T02670092  RH  034%=      5-min Rain = 0
KSE1 130135Z 06006KT 27/09 A2983 RMK A01 T02720090  RH  032%=      5-min Rain = 0
KSE1 130140Z 07005KT 27/09 A2984 RMK A01 T02720089  RH  032%=      5-min Rain = 0
KSE1 130145Z 07004KT 27/09 A2984 RMK A01 T02710090  RH  033%=      5-min Rain = 0
KSE1 130150Z 08004KT 27/09 A2984 RMK A01 T02680090  RH  033%=      5-min Rain = 0
KSE1 130155Z 07004KT 27/09 A2984 RMK A01 T02650090  RH  034%=      5-min Rain = 0
KSE1 130200Z 07004KT 26/09 A2984 RMK A01 T02620090  RH  034%=      5-min Rain = 0
KSE1 130205Z 07004KT 26/09 A2985 RMK A01 T02600090  RH  035%=      5-min Rain = 0
KSE1 130210Z 07003KT 26/09 A2985 RMK A01 T02580090  RH  035%=      5-min Rain = 0
KSE1 130215Z 07004KT 26/09 A2985 RMK A01 T02560089  RH  035%=      5-min Rain = 0
KSE1 130220Z 07004KT 26/09 A2985 RMK A01 T02550088  RH  035%=      5-min Rain = 0
KSE1 130225Z 08004KT 25/09 A2985 RMK A01 T02540087  RH  035%=      5-min Rain = 0
KSE1 130230Z 07004KT 25/09 A2985 RMK A01 T02530086  RH  035%=      5-min Rain = 0
KSE1 130235Z 08004KT 25/09 A2985 RMK A01 T02520086  RH  035%=      5-min Rain = 0
KSE1 130240Z 08004KT 25/09 A2985 RMK A01 T02510086  RH  035%=      5-min Rain = 0
KSE1 130245Z 08003KT 25/09 A2985 RMK A01 T02500085  RH  036%=      5-min Rain = 0
KSE1 130250Z 07003KT 25/09 A2985 RMK A01 T02490086  RH  036%=      5-min Rain = 0
KSE1 130255Z 07003KT 25/09 A2985 RMK A01 T02470087  RH  037%=      5-min Rain = 0
KSE1 130300Z 07003KT 25/09 A2986 RMK A01 T02450088  RH  037%=      5-min Rain = 0
KSE1 130305Z 07003KT 24/09 A2986 RMK A01 T02440090  RH  038%=      5-min Rain = 0
KSE1 130310Z 07003KT 24/09 A2986 RMK A01 T02430090  RH  038%=      5-min Rain = 0
KSE1 130315Z 08003KT 24/09 A2986 RMK A01 T02420089  RH  038%=      5-min Rain = 0
KSE1 130320Z 07003KT 24/09 A2986 RMK A01 T02430089  RH  038%=      5-min Rain = 0
KSE1 130325Z 07004KT 24/09 A2986 RMK A01 T02410090  RH  039%=      5-min Rain = 0
KSE1 130330Z 07004KT 24/09 A2986 RMK A01 T02400089  RH  039%=      5-min Rain = 0
KSE1 130335Z 08003KT 24/09 A2986 RMK A01 T02400090  RH  039%=      5-min Rain = 0
KSE1 130340Z 08004KT 24/09 A2986 RMK A01 T02390091  RH  039%=      5-min Rain = 0
KSE1 130345Z 09004KT 24/09 A2986 RMK A01 T02380092  RH  040%=      5-min Rain = 0
KSE1 130350Z 08004KT 24/09 A2986 RMK A01 T02360092  RH  041%=      5-min Rain = 0
KSE1 130355Z 08004KT 23/09 A2986 RMK A01 T02340093  RH  041%=      5-min Rain = 0
KSE1 130400Z 08004KT 23/09 A2986 RMK A01 T02320094  RH  042%=      5-min Rain = 0
KSE1 130405Z 08004KT 23/09 A2986 RMK A01 T02300094  RH  043%=      5-min Rain = 0
KSE1 130410Z 08004KT 23/09 A2986 RMK A01 T02290094  RH  043%=      5-min Rain = 0
KSE1 130415Z 09005KT 23/10 A2986 RMK A01 T02290095  RH  043%=      5-min Rain = 0
KSE1 130420Z 08005KT 23/10 A2986 RMK A01 T02280096  RH  044%=      5-min Rain = 0
KSE1 130425Z 08004KT 23/10 A2986 RMK A01 T02260096  RH  044%=      5-min Rain = 0
KSE1 130430Z 08004KT 22/10 A2987 RMK A01 T02230096  RH  045%=      5-min Rain = 0
KSE1 130435Z 08004KT 22/10 A2987 RMK A01 T02220096  RH  045%=      5-min Rain = 0
KSE1 130440Z 09004KT 22/10 A2986 RMK A01 T02220098  RH  046%=      5-min Rain = 0
KSE1 130445Z 09004KT 22/10 A2986 RMK A01 T02190097  RH  047%=      5-min Rain = 0
KSE1 130450Z 09003KT 21/10 A2986 RMK A01 T02130096  RH  048%=      5-min Rain = 0
KSE1 130455Z 09003KT 21/10 A2986 RMK A01 T02080096  RH  049%=      5-min Rain = 0

Page generated in 0.0292 seconds.